sensor_id;sensor_type;location;lat;lon;timestamp;temperature;humidity
29031;DHT22;16122;50.236;11.734;2022-12-11T00:01:59;14.20;68.70
29031;DHT22;16122;50.236;11.734;2022-12-11T00:04:25;14.20;68.60
29031;DHT22;16122;50.236;11.734;2022-12-11T00:06:51;14.20;68.50
29031;DHT22;16122;50.236;11.734;2022-12-11T00:09:18;14.20;68.50
29031;DHT22;16122;50.236;11.734;2022-12-11T00:11:44;14.10;68.30
29031;DHT22;16122;50.236;11.734;2022-12-11T00:14:11;14.10;68.30
29031;DHT22;16122;50.236;11.734;2022-12-11T00:16:37;14.10;68.10
29031;DHT22;16122;50.236;11.734;2022-12-11T00:19:03;14.10;68.90
29031;DHT22;16122;50.236;11.734;2022-12-11T00:21:29;14.10;68.00
29031;DHT22;16122;50.236;11.734;2022-12-11T00:23:55;14.20;68.00
29031;DHT22;16122;50.236;11.734;2022-12-11T00:26:21;14.10;67.80
29031;DHT22;16122;50.236;11.734;2022-12-11T00:28:52;14.10;67.90
29031;DHT22;16122;50.236;11.734;2022-12-11T00:31:19;14.10;68.50
29031;DHT22;16122;50.236;11.734;2022-12-11T00:33:45;14.10;67.80
29031;DHT22;16122;50.236;11.734;2022-12-11T00:36:16;14.10;67.70
29031;DHT22;16122;50.236;11.734;2022-12-11T00:38:42;14.10;67.70
29031;DHT22;16122;50.236;11.734;2022-12-11T00:41:09;14.10;67.60
29031;DHT22;16122;50.236;11.734;2022-12-11T00:43:35;14.10;67.60
29031;DHT22;16122;50.236;11.734;2022-12-11T00:46:01;14.10;67.50
29031;DHT22;16122;50.236;11.734;2022-12-11T00:48:27;14.10;67.50
29031;DHT22;16122;50.236;11.734;2022-12-11T00:50:53;14.10;67.40
29031;DHT22;16122;50.236;11.734;2022-12-11T00:53:19;14.10;67.30
29031;DHT22;16122;50.236;11.734;2022-12-11T00:55:45;14.10;67.30
29031;DHT22;16122;50.236;11.734;2022-12-11T00:58:11;14.10;67.30
29031;DHT22;16122;50.236;11.734;2022-12-11T01:00:38;14.10;67.20
29031;DHT22;16122;50.236;11.734;2022-12-11T01:03:05;14.10;67.20
29031;DHT22;16122;50.236;11.734;2022-12-11T01:05:31;14.10;67.10
29031;DHT22;16122;50.236;11.734;2022-12-11T01:07:57;14.10;67.10
29031;DHT22;16122;50.236;11.734;2022-12-11T01:10:23;14.10;67.00
29031;DHT22;16122;50.236;11.734;2022-12-11T01:12:58;14.10;66.90
29031;DHT22;16122;50.236;11.734;2022-12-11T01:15:28;14.10;66.90
29031;DHT22;16122;50.236;11.734;2022-12-11T01:17:55;14.10;66.90
29031;DHT22;16122;50.236;11.734;2022-12-11T01:20:22;14.10;66.70
29031;DHT22;16122;50.236;11.734;2022-12-11T01:22:57;14.10;66.70
29031;DHT22;16122;50.236;11.734;2022-12-11T01:25:23;14.10;66.70
29031;DHT22;16122;50.236;11.734;2022-12-11T01:27:51;14.10;66.60
29031;DHT22;16122;50.236;11.734;2022-12-11T01:30:19;14.10;66.40
29031;DHT22;16122;50.236;11.734;2022-12-11T01:32:45;14.10;66.40
29031;DHT22;16122;50.236;11.734;2022-12-11T01:35:11;14.10;66.40
29031;DHT22;16122;50.236;11.734;2022-12-11T01:37:38;14.10;66.40
29031;DHT22;16122;50.236;11.734;2022-12-11T01:40:05;14.10;66.30
29031;DHT22;16122;50.236;11.734;2022-12-11T01:42:31;14.10;66.40
29031;DHT22;16122;50.236;11.734;2022-12-11T01:45:33;14.20;66.40
29031;DHT22;16122;50.236;11.734;2022-12-11T01:50:31;14.20;66.40
29031;DHT22;16122;50.236;11.734;2022-12-11T01:52:58;14.20;66.30
29031;DHT22;16122;50.236;11.734;2022-12-11T01:55:24;14.20;66.30
29031;DHT22;16122;50.236;11.734;2022-12-11T01:57:51;14.20;66.30
29031;DHT22;16122;50.236;11.734;2022-12-11T02:00:18;14.20;66.20
29031;DHT22;16122;50.236;11.734;2022-12-11T02:02:44;14.20;66.10
29031;DHT22;16122;50.236;11.734;2022-12-11T02:05:10;14.20;66.10
29031;DHT22;16122;50.236;11.734;2022-12-11T02:07:49;14.20;66.10
29031;DHT22;16122;50.236;11.734;2022-12-11T02:10:16;14.20;66.00
29031;DHT22;16122;50.236;11.734;2022-12-11T02:15:36;14.20;66.10
29031;DHT22;16122;50.236;11.734;2022-12-11T02:18:13;14.20;66.20
29031;DHT22;16122;50.236;11.734;2022-12-11T02:20:47;14.20;65.90
29031;DHT22;16122;50.236;11.734;2022-12-11T02:29:26;14.20;65.90
29031;DHT22;16122;50.236;11.734;2022-12-11T02:32:02;14.30;66.00
29031;DHT22;16122;50.236;11.734;2022-12-11T02:34:54;14.30;66.10
29031;DHT22;16122;50.236;11.734;2022-12-11T02:37:23;14.30;66.00
29031;DHT22;16122;50.236;11.734;2022-12-11T02:39:53;14.30;66.00
29031;DHT22;16122;50.236;11.734;2022-12-11T02:42:20;14.30;65.90
29031;DHT22;16122;50.236;11.734;2022-12-11T02:44:49;14.30;65.90
29031;DHT22;16122;50.236;11.734;2022-12-11T02:47:17;14.30;66.00
29031;DHT22;16122;50.236;11.734;2022-12-11T02:49:47;14.30;65.80
29031;DHT22;16122;50.236;11.734;2022-12-11T02:52:16;14.30;65.80
29031;DHT22;16122;50.236;11.734;2022-12-11T02:54:43;14.30;65.80
29031;DHT22;16122;50.236;11.734;2022-12-11T02:57:15;14.30;65.80
29031;DHT22;16122;50.236;11.734;2022-12-11T02:59:44;14.30;65.80
29031;DHT22;16122;50.236;11.734;2022-12-11T03:02:12;14.30;65.80
29031;DHT22;16122;50.236;11.734;2022-12-11T03:04:39;14.30;65.70
29031;DHT22;16122;50.236;11.734;2022-12-11T03:07:12;14.30;65.80
29031;DHT22;16122;50.236;11.734;2022-12-11T03:09:45;14.30;65.70
29031;DHT22;16122;50.236;11.734;2022-12-11T03:12:14;14.30;65.60
29031;DHT22;16122;50.236;11.734;2022-12-11T03:14:42;14.30;65.60
29031;DHT22;16122;50.236;11.734;2022-12-11T03:17:13;14.30;65.70
29031;DHT22;16122;50.236;11.734;2022-12-11T03:20:01;14.30;65.50
29031;DHT22;16122;50.236;11.734;2022-12-11T03:23:21;14.30;65.60
29031;DHT22;16122;50.236;11.734;2022-12-11T03:25:56;14.30;65.60
29031;DHT22;16122;50.236;11.734;2022-12-11T03:31:06;14.30;65.40
29031;DHT22;16122;50.236;11.734;2022-12-11T03:33:37;14.30;65.30
29031;DHT22;16122;50.236;11.734;2022-12-11T03:36:13;14.30;65.40
29031;DHT22;16122;50.236;11.734;2022-12-11T03:42:00;14.30;65.30
29031;DHT22;16122;50.236;11.734;2022-12-11T03:44:27;14.30;65.30
29031;DHT22;16122;50.236;11.734;2022-12-11T03:46:56;14.30;65.20
29031;DHT22;16122;50.236;11.734;2022-12-11T03:49:26;14.30;65.30
29031;DHT22;16122;50.236;11.734;2022-12-11T03:51:55;14.30;65.20
29031;DHT22;16122;50.236;11.734;2022-12-11T03:54:23;14.30;65.20
29031;DHT22;16122;50.236;11.734;2022-12-11T03:56:53;14.30;65.20
29031;DHT22;16122;50.236;11.734;2022-12-11T03:59:20;14.30;65.20
29031;DHT22;16122;50.236;11.734;2022-12-11T04:01:46;14.30;65.20
29031;DHT22;16122;50.236;11.734;2022-12-11T04:04:12;14.30;65.10
29031;DHT22;16122;50.236;11.734;2022-12-11T04:06:37;14.30;65.10
29031;DHT22;16122;50.236;11.734;2022-12-11T04:09:03;14.30;65.10
29031;DHT22;16122;50.236;11.734;2022-12-11T04:11:29;14.30;64.90
29031;DHT22;16122;50.236;11.734;2022-12-11T04:14:12;14.30;64.90
29031;DHT22;16122;50.236;11.734;2022-12-11T04:16:59;14.30;64.90
29031;DHT22;16122;50.236;11.734;2022-12-11T04:19:26;14.30;64.70
29031;DHT22;16122;50.236;11.734;2022-12-11T04:22:11;14.30;64.70
29031;DHT22;16122;50.236;11.734;2022-12-11T04:24:55;14.30;64.60
29031;DHT22;16122;50.236;11.734;2022-12-11T04:27:22;14.30;64.50
29031;DHT22;16122;50.236;11.734;2022-12-11T04:30:09;14.30;64.50
29031;DHT22;16122;50.236;11.734;2022-12-11T04:32:36;14.30;64.40
29031;DHT22;16122;50.236;11.734;2022-12-11T04:35:02;14.30;64.30
29031;DHT22;16122;50.236;11.734;2022-12-11T04:37:28;14.30;64.30
29031;DHT22;16122;50.236;11.734;2022-12-11T04:39:54;14.30;64.10
29031;DHT22;16122;50.236;11.734;2022-12-11T04:42:20;14.30;64.10
29031;DHT22;16122;50.236;11.734;2022-12-11T04:44:45;14.30;64.10
29031;DHT22;16122;50.236;11.734;2022-12-11T04:47:11;14.30;64.00
29031;DHT22;16122;50.236;11.734;2022-12-11T04:49:37;14.30;63.80
29031;DHT22;16122;50.236;11.734;2022-12-11T04:52:03;14.30;63.80
29031;DHT22;16122;50.236;11.734;2022-12-11T04:54:30;14.30;63.70
29031;DHT22;16122;50.236;11.734;2022-12-11T04:56:55;14.30;63.60
29031;DHT22;16122;50.236;11.734;2022-12-11T04:59:21;14.30;63.60
29031;DHT22;16122;50.236;11.734;2022-12-11T05:01:47;14.30;63.60
29031;DHT22;16122;50.236;11.734;2022-12-11T05:04:13;14.30;63.50
29031;DHT22;16122;50.236;11.734;2022-12-11T05:06:39;14.20;63.40
29031;DHT22;16122;50.236;11.734;2022-12-11T05:09:05;14.20;63.40
29031;DHT22;16122;50.236;11.734;2022-12-11T05:11:31;14.20;63.40
29031;DHT22;16122;50.236;11.734;2022-12-11T05:13:58;14.20;63.30
29031;DHT22;16122;50.236;11.734;2022-12-11T05:16:23;14.20;63.20
29031;DHT22;16122;50.236;11.734;2022-12-11T05:18:49;14.20;63.20
29031;DHT22;16122;50.236;11.734;2022-12-11T05:21:15;14.20;63.10
29031;DHT22;16122;50.236;11.734;2022-12-11T05:23:41;14.20;63.10
29031;DHT22;16122;50.236;11.734;2022-12-11T05:26:11;14.20;63.10
29031;DHT22;16122;50.236;11.734;2022-12-11T05:28:37;14.20;63.10
29031;DHT22;16122;50.236;11.734;2022-12-11T05:31:06;14.20;63.00
29031;DHT22;16122;50.236;11.734;2022-12-11T05:33:32;14.20;63.00
29031;DHT22;16122;50.236;11.734;2022-12-11T05:35:59;14.20;62.90
29031;DHT22;16122;50.236;11.734;2022-12-11T05:38:25;14.20;62.80
29031;DHT22;16122;50.236;11.734;2022-12-11T05:41:12;14.20;62.90
29031;DHT22;16122;50.236;11.734;2022-12-11T05:43:38;14.20;62.80
29031;DHT22;16122;50.236;11.734;2022-12-11T05:46:06;14.20;62.90
29031;DHT22;16122;50.236;11.734;2022-12-11T05:48:32;14.20;62.90
29031;DHT22;16122;50.236;11.734;2022-12-11T05:51:00;14.20;62.90
29031;DHT22;16122;50.236;11.734;2022-12-11T05:53:27;14.20;63.10
29031;DHT22;16122;50.236;11.734;2022-12-11T05:55:53;14.20;63.20
29031;DHT22;16122;50.236;11.734;2022-12-11T05:58:20;14.20;63.10
29031;DHT22;16122;50.236;11.734;2022-12-11T06:00:46;14.20;63.20
29031;DHT22;16122;50.236;11.734;2022-12-11T06:03:12;14.20;63.20
29031;DHT22;16122;50.236;11.734;2022-12-11T06:05:40;14.10;63.50
29031;DHT22;16122;50.236;11.734;2022-12-11T06:08:06;14.10;63.30
29031;DHT22;16122;50.236;11.734;2022-12-11T06:10:32;14.10;63.30
29031;DHT22;16122;50.236;11.734;2022-12-11T06:12:58;14.10;63.30
29031;DHT22;16122;50.236;11.734;2022-12-11T06:15:25;14.10;63.50
29031;DHT22;16122;50.236;11.734;2022-12-11T06:17:51;14.10;63.40
29031;DHT22;16122;50.236;11.734;2022-12-11T06:20:17;14.10;63.60
29031;DHT22;16122;50.236;11.734;2022-12-11T06:22:43;14.10;63.60
29031;DHT22;16122;50.236;11.734;2022-12-11T06:25:09;14.10;63.70
29031;DHT22;16122;50.236;11.734;2022-12-11T06:27:34;14.10;63.90
29031;DHT22;16122;50.236;11.734;2022-12-11T06:30:01;14.10;64.00
29031;DHT22;16122;50.236;11.734;2022-12-11T06:32:26;14.10;64.00
29031;DHT22;16122;50.236;11.734;2022-12-11T06:34:53;14.10;64.00
29031;DHT22;16122;50.236;11.734;2022-12-11T06:37:19;14.10;64.40
29031;DHT22;16122;50.236;11.734;2022-12-11T06:39:45;14.10;64.40
29031;DHT22;16122;50.236;11.734;2022-12-11T06:42:10;14.10;64.50
29031;DHT22;16122;50.236;11.734;2022-12-11T06:44:36;14.10;64.60
29031;DHT22;16122;50.236;11.734;2022-12-11T06:47:03;14.10;64.70
29031;DHT22;16122;50.236;11.734;2022-12-11T06:49:28;14.10;64.80
29031;DHT22;16122;50.236;11.734;2022-12-11T06:51:55;14.10;65.00
29031;DHT22;16122;50.236;11.734;2022-12-11T06:54:25;14.10;65.00
29031;DHT22;16122;50.236;11.734;2022-12-11T06:56:51;14.10;65.10
29031;DHT22;16122;50.236;11.734;2022-12-11T06:59:17;14.10;65.10
29031;DHT22;16122;50.236;11.734;2022-12-11T07:01:44;14.10;65.10
29031;DHT22;16122;50.236;11.734;2022-12-11T07:04:10;14.10;65.10
29031;DHT22;16122;50.236;11.734;2022-12-11T07:06:36;14.10;65.00
29031;DHT22;16122;50.236;11.734;2022-12-11T07:09:05;14.10;64.50
29031;DHT22;16122;50.236;11.734;2022-12-11T07:11:31;14.10;65.00
29031;DHT22;16122;50.236;11.734;2022-12-11T07:13:59;14.10;64.90
29031;DHT22;16122;50.236;11.734;2022-12-11T07:16:25;14.10;64.80
29031;DHT22;16122;50.236;11.734;2022-12-11T07:18:51;14.10;64.80
29031;DHT22;16122;50.236;11.734;2022-12-11T07:21:18;14.10;64.90
29031;DHT22;16122;50.236;11.734;2022-12-11T07:23:45;14.10;64.80
29031;DHT22;16122;50.236;11.734;2022-12-11T07:26:14;14.10;64.80
29031;DHT22;16122;50.236;11.734;2022-12-11T07:28:40;14.10;64.70
29031;DHT22;16122;50.236;11.734;2022-12-11T07:31:08;14.10;64.60
29031;DHT22;16122;50.236;11.734;2022-12-11T07:33:35;14.10;64.70
29031;DHT22;16122;50.236;11.734;2022-12-11T07:36:03;14.10;64.60
29031;DHT22;16122;50.236;11.734;2022-12-11T07:38:29;14.10;64.70
29031;DHT22;16122;50.236;11.734;2022-12-11T07:40:55;14.10;64.90
29031;DHT22;16122;50.236;11.734;2022-12-11T07:43:21;14.10;64.80
29031;DHT22;16122;50.236;11.734;2022-12-11T07:45:46;14.10;64.90
29031;DHT22;16122;50.236;11.734;2022-12-11T07:48:12;14.10;64.50
29031;DHT22;16122;50.236;11.734;2022-12-11T07:50:38;14.10;64.60
29031;DHT22;16122;50.236;11.734;2022-12-11T07:53:04;14.10;64.70
29031;DHT22;16122;50.236;11.734;2022-12-11T07:55:31;14.10;64.80
29031;DHT22;16122;50.236;11.734;2022-12-11T07:57:56;14.10;64.70
29031;DHT22;16122;50.236;11.734;2022-12-11T08:00:22;14.10;64.80
29031;DHT22;16122;50.236;11.734;2022-12-11T08:02:48;14.10;64.50
29031;DHT22;16122;50.236;11.734;2022-12-11T08:05:14;14.10;64.30
29031;DHT22;16122;50.236;11.734;2022-12-11T08:07:39;14.00;64.60
29031;DHT22;16122;50.236;11.734;2022-12-11T08:10:05;14.10;64.60
29031;DHT22;16122;50.236;11.734;2022-12-11T08:12:32;14.10;64.30
29031;DHT22;16122;50.236;11.734;2022-12-11T08:14:57;14.10;64.10
29031;DHT22;16122;50.236;11.734;2022-12-11T08:17:23;14.00;63.90
29031;DHT22;16122;50.236;11.734;2022-12-11T08:19:49;14.00;63.80
29031;DHT22;16122;50.236;11.734;2022-12-11T08:22:15;14.00;63.80
29031;DHT22;16122;50.236;11.734;2022-12-11T08:24:40;14.00;63.90
29031;DHT22;16122;50.236;11.734;2022-12-11T08:27:07;14.10;63.90
29031;DHT22;16122;50.236;11.734;2022-12-11T08:29:33;14.00;63.80
29031;DHT22;16122;50.236;11.734;2022-12-11T08:31:59;14.00;63.80
29031;DHT22;16122;50.236;11.734;2022-12-11T08:34:25;14.00;63.60
29031;DHT22;16122;50.236;11.734;2022-12-11T08:36:50;14.00;64.10
29031;DHT22;16122;50.236;11.734;2022-12-11T08:39:16;14.00;64.20
29031;DHT22;16122;50.236;11.734;2022-12-11T08:41:42;14.00;64.10
29031;DHT22;16122;50.236;11.734;2022-12-11T08:44:11;14.00;64.20
29031;DHT22;16122;50.236;11.734;2022-12-11T08:46:37;14.00;64.20
29031;DHT22;16122;50.236;11.734;2022-12-11T08:49:03;14.00;64.30
29031;DHT22;16122;50.236;11.734;2022-12-11T08:51:30;14.00;64.30
29031;DHT22;16122;50.236;11.734;2022-12-11T08:53:58;14.00;64.30
29031;DHT22;16122;50.236;11.734;2022-12-11T08:56:25;14.00;64.30
29031;DHT22;16122;50.236;11.734;2022-12-11T08:58:51;14.00;64.30
29031;DHT22;16122;50.236;11.734;2022-12-11T09:01:24;14.00;64.30
29031;DHT22;16122;50.236;11.734;2022-12-11T09:03:52;14.00;64.40
29031;DHT22;16122;50.236;11.734;2022-12-11T09:06:20;14.00;64.30
29031;DHT22;16122;50.236;11.734;2022-12-11T09:08:47;14.00;64.20
29031;DHT22;16122;50.236;11.734;2022-12-11T09:11:17;14.00;64.30
29031;DHT22;16122;50.236;11.734;2022-12-11T09:13:44;14.00;64.00
29031;DHT22;16122;50.236;11.734;2022-12-11T09:16:13;14.00;63.80
29031;DHT22;16122;50.236;11.734;2022-12-11T09:18:39;14.00;63.90
29031;DHT22;16122;50.236;11.734;2022-12-11T09:21:08;14.00;63.80
29031;DHT22;16122;50.236;11.734;2022-12-11T09:23:35;14.00;64.00
29031;DHT22;16122;50.236;11.734;2022-12-11T09:26:05;14.00;63.70
29031;DHT22;16122;50.236;11.734;2022-12-11T09:28:31;14.00;63.60
29031;DHT22;16122;50.236;11.734;2022-12-11T09:30:57;14.00;63.50
29031;DHT22;16122;50.236;11.734;2022-12-11T09:33:23;14.00;63.40
29031;DHT22;16122;50.236;11.734;2022-12-11T09:36:02;14.00;63.30
29031;DHT22;16122;50.236;11.734;2022-12-11T09:38:29;14.00;63.30
29031;DHT22;16122;50.236;11.734;2022-12-11T09:40:55;14.00;63.60
29031;DHT22;16122;50.236;11.734;2022-12-11T09:46:09;14.00;62.80
29031;DHT22;16122;50.236;11.734;2022-12-11T09:48:37;13.90;62.70
29031;DHT22;16122;50.236;11.734;2022-12-11T09:53:55;14.00;62.70
29031;DHT22;16122;50.236;11.734;2022-12-11T09:56:26;13.90;62.50
29031;DHT22;16122;50.236;11.734;2022-12-11T09:59:28;13.90;62.50
29031;DHT22;16122;50.236;11.734;2022-12-11T10:10:37;13.90;62.40
29031;DHT22;16122;50.236;11.734;2022-12-11T10:16:23;13.90;62.50
29031;DHT22;16122;50.236;11.734;2022-12-11T10:18:51;13.90;62.50
29031;DHT22;16122;50.236;11.734;2022-12-11T10:21:18;13.90;62.50
29031;DHT22;16122;50.236;11.734;2022-12-11T10:23:55;13.90;62.40
29031;DHT22;16122;50.236;11.734;2022-12-11T10:26:23;13.90;62.30
29031;DHT22;16122;50.236;11.734;2022-12-11T10:28:49;13.90;62.30
29031;DHT22;16122;50.236;11.734;2022-12-11T10:31:17;13.90;63.00
29031;DHT22;16122;50.236;11.734;2022-12-11T10:33:59;13.90;62.40
29031;DHT22;16122;50.236;11.734;2022-12-11T10:36:28;13.90;62.30
29031;DHT22;16122;50.236;11.734;2022-12-11T10:38:54;13.90;62.30
29031;DHT22;16122;50.236;11.734;2022-12-11T10:41:31;13.90;62.30
29031;DHT22;16122;50.236;11.734;2022-12-11T10:43:59;13.90;62.30
29031;DHT22;16122;50.236;11.734;2022-12-11T10:46:27;13.90;62.40
29031;DHT22;16122;50.236;11.734;2022-12-11T10:48:56;13.90;62.30
29031;DHT22;16122;50.236;11.734;2022-12-11T10:54:05;13.90;62.20
29031;DHT22;16122;50.236;11.734;2022-12-11T10:56:33;13.90;62.20
29031;DHT22;16122;50.236;11.734;2022-12-11T10:59:00;13.90;62.30
29031;DHT22;16122;50.236;11.734;2022-12-11T11:01:28;13.90;62.40
29031;DHT22;16122;50.236;11.734;2022-12-11T11:04:05;13.90;62.30
29031;DHT22;16122;50.236;11.734;2022-12-11T11:06:32;13.90;62.20
29031;DHT22;16122;50.236;11.734;2022-12-11T11:09:00;13.90;62.20
29031;DHT22;16122;50.236;11.734;2022-12-11T11:11:36;13.90;62.10
29031;DHT22;16122;50.236;11.734;2022-12-11T11:16:41;13.90;61.90
29031;DHT22;16122;50.236;11.734;2022-12-11T11:19:17;13.90;61.90
29031;DHT22;16122;50.236;11.734;2022-12-11T11:21:53;13.90;61.70
29031;DHT22;16122;50.236;11.734;2022-12-11T11:24:35;13.90;61.70
29031;DHT22;16122;50.236;11.734;2022-12-11T11:27:21;13.90;61.80
29031;DHT22;16122;50.236;11.734;2022-12-11T11:29:55;13.90;61.70
29031;DHT22;16122;50.236;11.734;2022-12-11T11:34:51;13.90;61.70
29031;DHT22;16122;50.236;11.734;2022-12-11T11:37:33;13.90;61.90
29031;DHT22;16122;50.236;11.734;2022-12-11T11:40:09;13.90;61.80
29031;DHT22;16122;50.236;11.734;2022-12-11T11:42:51;13.90;61.90
29031;DHT22;16122;50.236;11.734;2022-12-11T11:45:28;13.90;61.90
29031;DHT22;16122;50.236;11.734;2022-12-11T11:48:01;13.90;62.00
29031;DHT22;16122;50.236;11.734;2022-12-11T11:50:34;13.90;61.80
29031;DHT22;16122;50.236;11.734;2022-12-11T11:53:16;13.90;61.90
29031;DHT22;16122;50.236;11.734;2022-12-11T12:01:29;13.90;61.90
29031;DHT22;16122;50.236;11.734;2022-12-11T12:03:56;13.90;61.70
29031;DHT22;16122;50.236;11.734;2022-12-11T12:06:43;13.90;61.60
29031;DHT22;16122;50.236;11.734;2022-12-11T12:12:29;13.90;61.70
29031;DHT22;16122;50.236;11.734;2022-12-11T12:21:03;13.90;61.60
29031;DHT22;16122;50.236;11.734;2022-12-11T12:24:03;13.90;61.60
29031;DHT22;16122;50.236;11.734;2022-12-11T12:26:40;13.90;61.60
29031;DHT22;16122;50.236;11.734;2022-12-11T12:37:23;13.90;61.40
29031;DHT22;16122;50.236;11.734;2022-12-11T12:45:49;13.90;61.40
29031;DHT22;16122;50.236;11.734;2022-12-11T12:48:16;13.90;61.30
29031;DHT22;16122;50.236;11.734;2022-12-11T12:50:45;13.90;61.30
29031;DHT22;16122;50.236;11.734;2022-12-11T12:53:17;13.90;61.20
29031;DHT22;16122;50.236;11.734;2022-12-11T12:55:45;13.90;61.30
29031;DHT22;16122;50.236;11.734;2022-12-11T13:00:49;13.90;61.20
29031;DHT22;16122;50.236;11.734;2022-12-11T13:03:24;13.90;61.20
29031;DHT22;16122;50.236;11.734;2022-12-11T13:06:08;13.90;61.20
29031;DHT22;16122;50.236;11.734;2022-12-11T13:08:52;13.90;61.20
29031;DHT22;16122;50.236;11.734;2022-12-11T13:11:20;13.90;61.20
29031;DHT22;16122;50.236;11.734;2022-12-11T13:14:20;13.90;61.30
29031;DHT22;16122;50.236;11.734;2022-12-11T13:16:48;13.90;61.20
29031;DHT22;16122;50.236;11.734;2022-12-11T13:27:26;13.90;61.20
29031;DHT22;16122;50.236;11.734;2022-12-11T13:30:26;13.90;61.10
29031;DHT22;16122;50.236;11.734;2022-12-11T13:33:00;13.90;61.20
29031;DHT22;16122;50.236;11.734;2022-12-11T13:35:28;13.90;61.00
29031;DHT22;16122;50.236;11.734;2022-12-11T13:37:55;13.90;61.00
29031;DHT22;16122;50.236;11.734;2022-12-11T13:40:26;13.90;60.90
29031;DHT22;16122;50.236;11.734;2022-12-11T13:42:59;13.90;60.90
29031;DHT22;16122;50.236;11.734;2022-12-11T13:45:29;13.90;61.00
29031;DHT22;16122;50.236;11.734;2022-12-11T13:47:58;13.90;60.80
29031;DHT22;16122;50.236;11.734;2022-12-11T13:50:27;13.90;60.90
29031;DHT22;16122;50.236;11.734;2022-12-11T13:52:58;13.90;60.90
29031;DHT22;16122;50.236;11.734;2022-12-11T13:55:35;13.90;60.70
29031;DHT22;16122;50.236;11.734;2022-12-11T13:58:01;13.90;60.70
29031;DHT22;16122;50.236;11.734;2022-12-11T14:00:30;13.90;60.80
29031;DHT22;16122;50.236;11.734;2022-12-11T14:03:00;13.90;60.70
29031;DHT22;16122;50.236;11.734;2022-12-11T14:05:28;13.90;60.70
29031;DHT22;16122;50.236;11.734;2022-12-11T14:07:56;13.90;60.50
29031;DHT22;16122;50.236;11.734;2022-12-11T14:10:26;13.90;60.70
29031;DHT22;16122;50.236;11.734;2022-12-11T14:15:19;13.90;60.50
29031;DHT22;16122;50.236;11.734;2022-12-11T14:17:45;13.90;60.50
29031;DHT22;16122;50.236;11.734;2022-12-11T14:20:21;13.90;60.40
29031;DHT22;16122;50.236;11.734;2022-12-11T14:22:48;13.90;60.50
29031;DHT22;16122;50.236;11.734;2022-12-11T14:25:25;13.90;60.30
29031;DHT22;16122;50.236;11.734;2022-12-11T14:27:54;13.90;60.30
29031;DHT22;16122;50.236;11.734;2022-12-11T14:30:30;13.90;60.40
29031;DHT22;16122;50.236;11.734;2022-12-11T14:32:59;13.90;60.30
29031;DHT22;16122;50.236;11.734;2022-12-11T14:35:36;13.90;60.20
29031;DHT22;16122;50.236;11.734;2022-12-11T14:38:09;13.90;60.30
29031;DHT22;16122;50.236;11.734;2022-12-11T14:40:41;13.80;60.10
29031;DHT22;16122;50.236;11.734;2022-12-11T14:43:28;13.80;60.00
29031;DHT22;16122;50.236;11.734;2022-12-11T14:46:03;13.80;60.00
29031;DHT22;16122;50.236;11.734;2022-12-11T14:48:35;13.90;60.70
29031;DHT22;16122;50.236;11.734;2022-12-11T14:51:06;13.80;59.90
29031;DHT22;16122;50.236;11.734;2022-12-11T14:53:39;13.80;59.90
29031;DHT22;16122;50.236;11.734;2022-12-11T14:56:07;13.80;59.90
29031;DHT22;16122;50.236;11.734;2022-12-11T14:58:40;13.80;59.90
29031;DHT22;16122;50.236;11.734;2022-12-11T15:01:23;13.80;60.10
29031;DHT22;16122;50.236;11.734;2022-12-11T15:03:49;13.80;59.90
29031;DHT22;16122;50.236;11.734;2022-12-11T15:06:28;13.80;60.00
29031;DHT22;16122;50.236;11.734;2022-12-11T15:08:55;13.80;60.00
29031;DHT22;16122;50.236;11.734;2022-12-11T15:11:21;13.80;60.10
29031;DHT22;16122;50.236;11.734;2022-12-11T15:13:56;13.80;60.10
29031;DHT22;16122;50.236;11.734;2022-12-11T15:16:24;13.80;60.00
29031;DHT22;16122;50.236;11.734;2022-12-11T15:18:53;13.80;60.00
29031;DHT22;16122;50.236;11.734;2022-12-11T15:21:28;13.80;60.70
29031;DHT22;16122;50.236;11.734;2022-12-11T15:23:56;13.80;60.00
29031;DHT22;16122;50.236;11.734;2022-12-11T15:26:43;13.80;59.90
29031;DHT22;16122;50.236;11.734;2022-12-11T15:29:35;13.70;59.90
29031;DHT22;16122;50.236;11.734;2022-12-11T15:37:31;13.80;59.90
29031;DHT22;16122;50.236;11.734;2022-12-11T15:40:00;13.80;60.00
29031;DHT22;16122;50.236;11.734;2022-12-11T15:42:36;13.80;59.90
29031;DHT22;16122;50.236;11.734;2022-12-11T15:45:06;13.80;59.90
29031;DHT22;16122;50.236;11.734;2022-12-11T15:47:32;13.70;59.90
29031;DHT22;16122;50.236;11.734;2022-12-11T15:50:22;13.70;59.80
29031;DHT22;16122;50.236;11.734;2022-12-11T15:52:50;13.70;59.70
29031;DHT22;16122;50.236;11.734;2022-12-11T15:55:18;13.70;59.80
29031;DHT22;16122;50.236;11.734;2022-12-11T16:00:17;13.70;59.60
29031;DHT22;16122;50.236;11.734;2022-12-11T16:02:44;13.70;59.70
29031;DHT22;16122;50.236;11.734;2022-12-11T16:05:09;13.70;59.70
29031;DHT22;16122;50.236;11.734;2022-12-11T16:07:35;13.70;59.70
29031;DHT22;16122;50.236;11.734;2022-12-11T16:10:02;13.70;59.60
29031;DHT22;16122;50.236;11.734;2022-12-11T16:12:28;13.70;59.60
29031;DHT22;16122;50.236;11.734;2022-12-11T16:14:53;13.70;59.60
29031;DHT22;16122;50.236;11.734;2022-12-11T16:17:19;13.70;59.70
29031;DHT22;16122;50.236;11.734;2022-12-11T16:19:45;13.80;59.70
29031;DHT22;16122;50.236;11.734;2022-12-11T16:22:12;13.70;59.60
29031;DHT22;16122;50.236;11.734;2022-12-11T16:24:38;13.80;59.60
29031;DHT22;16122;50.236;11.734;2022-12-11T16:27:05;13.80;59.60
29031;DHT22;16122;50.236;11.734;2022-12-11T16:29:35;13.80;59.50
29031;DHT22;16122;50.236;11.734;2022-12-11T16:32:01;13.80;59.60
29031;DHT22;16122;50.236;11.734;2022-12-11T16:34:27;13.70;60.10
29031;DHT22;16122;50.236;11.734;2022-12-11T16:36:55;13.70;59.40
29031;DHT22;16122;50.236;11.734;2022-12-11T16:39:21;13.70;59.40
29031;DHT22;16122;50.236;11.734;2022-12-11T16:41:47;13.80;59.50
29031;DHT22;16122;50.236;11.734;2022-12-11T16:44:16;13.70;59.40
29031;DHT22;16122;50.236;11.734;2022-12-11T16:46:44;13.80;59.50
29031;DHT22;16122;50.236;11.734;2022-12-11T16:49:10;13.80;59.40
29031;DHT22;16122;50.236;11.734;2022-12-11T16:51:36;13.80;59.50
29031;DHT22;16122;50.236;11.734;2022-12-11T16:54:02;13.70;59.40
29031;DHT22;16122;50.236;11.734;2022-12-11T16:56:28;13.70;59.40
29031;DHT22;16122;50.236;11.734;2022-12-11T16:58:54;13.80;59.50
29031;DHT22;16122;50.236;11.734;2022-12-11T17:01:21;13.80;59.50
29031;DHT22;16122;50.236;11.734;2022-12-11T17:03:46;13.80;59.60